Bookmark and Share
Track history (hours):
 

Shimanami Star

Last reported at 2014-Mar-18 09:32 UTC. Time now 2014-Apr-24 09:28 UTC.
Position N 01°13' E 103°31'.
Warning: this ship's position is 36 days out of date.

Length 170 m; draft 8.1 m.

Type: Cargo ship. MMSI: 309116000.

NotesDate/timePositionNaut miles runAvg speedWind from/ knotsBaromVisibWave heightAir tempDewpointWater temp
2014-Mar-18 09:32N 01°13' E 103°31'1413.8
2014-Mar-18 08:33N 01°09' E 103°44'1211.4
2014-Mar-18 07:32N 01°14' E 103°54'2 1.2
2014-Mar-18 06:11N 01°16' E 103°54'0 0.0
2014-Mar-18 05:20N 01°16' E 103°54'0 0.0
2014-Mar-18 04:26N 01°16' E 103°54'0 0.0
2014-Mar-18 03:32N 01°16' E 103°54'0 0.0
2014-Mar-18 02:32N 01°16' E 103°54'0 0.0
2014-Mar-18 01:29N 01°16' E 103°54'0 0.1
2014-Mar-18 00:29N 01°16' E 103°54'0 0.0
2014-Mar-17 23:29N 01°16' E 103°54'0 0.0
2014-Mar-17 20:29N 01°16' E 103°54'2 2.4
2014-Mar-17 19:31N 01°13' E 103°54'3 2.7
2014-Mar-17 18:33N 01°14' E 103°56'  
2014-Mar-11 02:18N 29°50' E 123°02'102 9.4
2014-Mar-10 15:26N 31°15' E 121°57'1112.4
2014-Mar-10 14:33N 31°19' E 121°45'1111.4
2014-Mar-10 13:34N 31°24' E 121°33'10 9.6
2014-Mar-10 12:34N 31°30' E 121°24'1 1.0
2014-Mar-10 11:07N 31°30' E 121°22'0 0.0
2014-Mar-10 10:25N 31°30' E 121°22'0 0.0
2014-Mar-10 09:31N 31°30' E 121°22'0 0.0
2014-Mar-10 08:31N 31°30' E 121°22'0 0.0
2014-Mar-10 07:31N 31°30' E 121°22'0 0.1
2014-Mar-10 06:31N 31°30' E 121°22'0 0.0
2014-Mar-10 05:31N 31°30' E 121°22'0 0.1
2014-Mar-10 04:31N 31°30' E 121°22'0 0.0
2014-Mar-10 03:19N 31°30' E 121°22'0 0.0
2014-Mar-10 02:31N 31°30' E 121°22'0 0.0
2014-Mar-10 01:31N 31°30' E 121°22'0 0.0
2014-Mar-10 00:31N 31°30' E 121°22'0 0.0
2014-Mar-09 23:31N 31°30' E 121°22'0 0.0
2014-Mar-09 22:31N 31°30' E 121°22'0 0.0
2014-Mar-09 21:31N 31°30' E 121°22'0 0.0
2014-Mar-09 20:31N 31°30' E 121°22'0 0.0
2014-Mar-09 19:25N 31°30' E 121°22'0 0.0
2014-Mar-09 18:31N 31°30' E 121°22'0 0.0
2014-Mar-09 17:31N 31°30' E 121°22'0 0.0
2014-Mar-09 16:25N 31°30' E 121°22'0 0.0
2014-Mar-09 15:25N 31°30' E 121°22'0 0.0
2014-Mar-09 14:31N 31°30' E 121°22'0 0.1
2014-Mar-09 13:31N 31°30' E 121°22'0 0.0
2014-Mar-09 12:25N 31°30' E 121°22'0 0.0
2014-Mar-09 11:25N 31°30' E 121°22'0 0.0
2014-Mar-09 10:25N 31°30' E 121°22'0 0.0
2014-Mar-09 09:31N 31°30' E 121°22'0 0.0
2014-Mar-09 08:19N 31°30' E 121°22'0 0.1
2014-Mar-09 07:31N 31°30' E 121°22'0 0.0
2014-Mar-09 06:31N 31°30' E 121°22'0 0.1
2014-Mar-09 05:31N 31°30' E 121°22'0 0.0
2014-Mar-09 04:25N 31°30' E 121°22'0 0.0
2014-Mar-09 03:31N 31°30' E 121°22'0 0.0
2014-Mar-09 02:31N 31°30' E 121°22'0 0.0
2014-Mar-09 01:31N 31°30' E 121°22'0 0.0
2014-Mar-09 00:31N 31°30' E 121°22'0 0.0
2014-Mar-08 23:31N 31°30' E 121°22'0 0.0
2014-Mar-08 22:19N 31°30' E 121°22'0 0.0
2014-Mar-08 20:49N 31°30' E 121°22'0 0.0
2014-Mar-08 20:31N 31°30' E 121°22'0 0.0
2014-Mar-08 19:07N 31°30' E 121°22'0 0.0
2014-Mar-08 18:19N 31°30' E 121°22'0 0.0
2014-Mar-08 17:31N 31°30' E 121°22'0 0.0
2014-Mar-08 16:25N 31°30' E 121°22'0 0.0
2014-Mar-08 15:13N 31°30' E 121°22'0 0.0
2014-Mar-08 14:31N 31°30' E 121°22'0 0.1
2014-Mar-08 13:31N 31°30' E 121°22'0 0.1
2014-Mar-08 12:31N 31°30' E 121°22'0 0.0
2014-Mar-08 11:19N 31°30' E 121°22'0 0.0
2014-Mar-08 10:31N 31°30' E 121°22'  

Dump ship's entire track history

sailing weather and tide predictions

Shimanami Star — C6VN9 — position and weather